Time;durP1;ratioP1;P1;durP2;ratioP2;P2;SDS_P1;SDS_P2;PMS_P1;PMS_P2;Temp;Humidity;BMP_temperature;BMP_pressure;BME280_temperature;BME280_humidity;BME280_pressure;Samples;Min_cycle;Max_cycle;Signal;HPM_P1;HPM_P2
2023/12/15 00:01:56;;;;;;;5.25;3.95;;;;;;;;;;5795838;28;20177;-79
2023/12/15 00:04:47;;;;;;;9.63;4.57;;;;;;;;;;5795138;28;20047;-79
2023/12/15 00:07:39;;;;;;;5.30;3.80;;;;;;;;;;5793897;28;20051;-79
2023/12/15 00:10:31;;;;;;;10.63;6.53;;;;;;;;;;5793787;28;20046;-79
2023/12/15 00:13:22;;;;;;;6.53;4.07;;;;;;;;;;5793685;28;20051;-79
2023/12/15 00:16:12;;;;;;;9.95;3.47;;;;;;;;;;5794963;28;20051;-79
2023/12/15 00:19:03;;;;;;;5.38;3.35;;;;;;;;;;5793865;28;20054;-79
2023/12/15 00:21:54;;;;;;;9.15;3.60;;;;;;;;;;5793997;28;20042;-79
2023/12/15 00:24:45;;;;;;;4.47;3.42;;;;;;;;;;5793589;28;20039;-79
2023/12/15 00:27:36;;;;;;;5.35;2.53;;;;;;;;;;5793531;28;20193;-79
2023/12/15 00:30:27;;;;;;;2.38;2.17;;;;;;;;;;5794873;28;20046;-79
2023/12/15 00:33:18;;;;;;;3.35;2.08;;;;;;;;;;5794468;28;20059;-79
2023/12/15 00:36:09;;;;;;;10.63;2.92;;;;;;;;;;5794583;28;20424;-79
2023/12/15 00:38:59;;;;;;;2.08;1.88;;;;;;;;;;5795037;28;20496;-79
2023/12/15 00:41:50;;;;;;;5.45;2.50;;;;;;;;;;5794921;28;20047;-79
2023/12/15 00:44:41;;;;;;;2.65;2.03;;;;;;;;;;5793383;28;20131;-79
2023/12/15 00:47:32;;;;;;;6.53;2.35;;;;;;;;;;5794485;28;20121;-79
2023/12/15 00:50:23;;;;;;;5.25;2.22;;;;;;;;;;5794272;28;20049;-79
2023/12/15 00:53:14;;;;;;;10.25;3.25;;;;;;;;;;5794265;28;20062;-79
2023/12/15 00:56:06;;;;;;;3.65;2.58;;;;;;;;;;5793170;28;20055;-79
2023/12/15 00:58:57;;;;;;;3.25;2.15;;;;;;;;;;5778010;28;20574;-79
2023/12/15 01:01:48;;;;;;;5.07;2.33;;;;;;;;;;5791268;28;20501;-79
2023/12/15 01:04:39;;;;;;;4.38;1.92;;;;;;;;;;5784016;28;20133;-79
2023/12/15 01:07:31;;;;;;;3.28;2.30;;;;;;;;;;5793953;28;20054;-79
2023/12/15 01:10:22;;;;;;;4.40;3.42;;;;;;;;;;5793776;28;20043;-79
2023/12/15 01:13:12;;;;;;;11.63;3.42;;;;;;;;;;5793879;28;20047;-79
2023/12/15 01:16:05;;;;;;;4.72;2.88;;;;;;;;;;5792573;28;20152;-79
2023/12/15 01:18:56;;;;;;;2.80;1.77;;;;;;;;;;5793229;28;20054;-79
2023/12/15 01:21:47;;;;;;;6.40;4.00;;;;;;;;;;5792665;28;20058;-79
2023/12/15 01:24:38;;;;;;;4.50;4.10;;;;;;;;;;5792654;28;20418;-79
2023/12/15 01:27:29;;;;;;;5.13;2.53;;;;;;;;;;5808713;28;20046;-79
2023/12/15 01:30:19;;;;;;;11.02;5.30;;;;;;;;;;5792509;28;20066;-79
2023/12/15 01:33:10;;;;;;;11.27;5.15;;;;;;;;;;5808406;28;20433;-79
2023/12/15 01:36:01;;;;;;;3.00;2.63;;;;;;;;;;5792503;28;20098;-79
2023/12/15 01:38:52;;;;;;;13.30;4.82;;;;;;;;;;5794066;28;20046;-79
2023/12/15 01:41:43;;;;;;;7.25;3.72;;;;;;;;;;5793704;28;20041;-79
2023/12/15 01:44:33;;;;;;;4.20;2.30;;;;;;;;;;5792499;28;20485;-79
2023/12/15 01:47:25;;;;;;;4.22;2.83;;;;;;;;;;5793605;28;20192;-79
2023/12/15 01:50:16;;;;;;;2.97;1.63;;;;;;;;;;5776336;28;20133;-79
2023/12/15 01:53:07;;;;;;;3.13;2.30;;;;;;;;;;5802476;28;20051;-79
2023/12/15 01:55:58;;;;;;;2.85;2.40;;;;;;;;;;5793941;28;20604;-79
2023/12/15 01:58:48;;;;;;;3.70;2.30;;;;;;;;;;5808146;28;20053;-79
2023/12/15 02:01:42;;;;;;;3.85;2.58;;;;;;;;;;5792024;28;20408;-79
2023/12/15 02:04:32;;;;;;;4.20;2.33;;;;;;;;;;5789909;28;20497;-79
2023/12/15 02:07:23;;;;;;;6.53;1.50;;;;;;;;;;5792238;28;20050;-79
2023/12/15 02:10:14;;;;;;;4.55;3.08;;;;;;;;;;5793408;28;20055;-79
2023/12/15 02:13:06;;;;;;;5.45;3.08;;;;;;;;;;5792013;28;20057;-79
2023/12/15 02:15:57;;;;;;;3.03;1.27;;;;;;;;;;5792607;28;20113;-79
2023/12/15 02:18:47;;;;;;;3.17;2.50;;;;;;;;;;5792096;28;20059;-79
2023/12/15 02:21:38;;;;;;;2.95;2.05;;;;;;;;;;5796483;28;20102;-79
2023/12/15 02:24:29;;;;;;;3.28;2.08;;;;;;;;;;5796056;28;20043;-79
2023/12/15 02:27:20;;;;;;;3.08;2.78;;;;;;;;;;5780010;28;20046;-79
2023/12/15 02:30:10;;;;;;;4.18;2.00;;;;;;;;;;5795918;28;20058;-79
2023/12/15 02:33:01;;;;;;;2.08;1.75;;;;;;;;;;5780221;28;20051;-79
2023/12/15 02:35:52;;;;;;;2.95;2.33;;;;;;;;;;5797799;28;20046;-79
2023/12/15 02:38:43;;;;;;;3.08;2.22;;;;;;;;;;5797092;28;20047;-79
2023/12/15 02:41:34;;;;;;;1.80;1.45;;;;;;;;;;5795837;28;20047;-79
2023/12/15 02:44:24;;;;;;;4.35;1.73;;;;;;;;;;5795825;28;20047;-79
2023/12/15 02:47:15;;;;;;;4.07;2.28;;;;;;;;;;5797046;28;20050;-79
2023/12/15 02:50:09;;;;;;;2.67;2.03;;;;;;;;;;5779686;28;20501;-79
2023/12/15 02:52:59;;;;;;;3.28;1.80;;;;;;;;;;5795982;28;20506;-79
2023/12/15 02:55:50;;;;;;;4.20;1.48;;;;;;;;;;5795629;28;20038;-79
2023/12/15 02:58:41;;;;;;;1.52;1.30;;;;;;;;;;5810483;28;20089;-79
2023/12/15 03:01:32;;;;;;;1.48;1.38;;;;;;;;;;5796596;28;20500;-79
2023/12/15 03:04:22;;;;;;;4.60;1.67;;;;;;;;;;5796429;28;20046;-79
2023/12/15 03:07:13;;;;;;;2.55;1.92;;;;;;;;;;5796685;28;20453;-79
2023/12/15 03:10:04;;;;;;;1.10;1.00;;;;;;;;;;5779268;28;20051;-79
2023/12/15 03:12:55;;;;;;;2.22;1.35;;;;;;;;;;5795566;28;20055;-79
2023/12/15 03:15:46;;;;;;;10.93;1.25;;;;;;;;;;5810818;28;20043;-79
2023/12/15 03:18:38;;;;;;;1.35;0.68;;;;;;;;;;5795099;28;20051;-79
2023/12/15 03:21:29;;;;;;;2.38;2.17;;;;;;;;;;5792095;28;20058;-79
2023/12/15 03:24:19;;;;;;;2.08;1.35;;;;;;;;;;5794903;28;20051;-79
2023/12/15 03:27:10;;;;;;;4.63;2.08;;;;;;;;;;5796191;28;20050;-79
2023/12/15 03:30:01;;;;;;;1.38;1.27;;;;;;;;;;5794787;28;20055;-79
2023/12/15 03:32:52;;;;;;;1.67;1.10;;;;;;;;;;5794319;28;20073;-79
2023/12/15 03:35:42;;;;;;;2.03;1.23;;;;;;;;;;5796212;28;20050;-79
2023/12/15 03:38:35;;;;;;;1.27;1.17;;;;;;;;;;5794902;28;20409;-79
2023/12/15 03:41:26;;;;;;;3.67;0.98;;;;;;;;;;5794727;28;20046;-79
2023/12/15 03:44:17;;;;;;;8.60;2.65;;;;;;;;;;5778539;28;20054;-79
2023/12/15 03:47:09;;;;;;;2.00;1.60;;;;;;;;;;5794714;28;20532;-79
2023/12/15 03:49:59;;;;;;;3.47;1.40;;;;;;;;;;5795087;28;20416;-79
2023/12/15 03:52:50;;;;;;;1.48;0.90;;;;;;;;;;5778676;28;20181;-79
2023/12/15 03:55:41;;;;;;;3.17;1.92;;;;;;;;;;5795656;28;20089;-79
2023/12/15 03:58:32;;;;;;;3.05;1.80;;;;;;;;;;5794379;28;20520;-79
2023/12/15 04:01:23;;;;;;;1.52;1.42;;;;;;;;;;5794159;28;20050;-79
2023/12/15 04:04:14;;;;;;;1.83;1.73;;;;;;;;;;5795479;28;20081;-79
2023/12/15 04:07:04;;;;;;;2.33;1.45;;;;;;;;;;5804097;28;20058;-79
2023/12/15 04:09:56;;;;;;;2.75;1.48;;;;;;;;;;5794294;28;20058;-79
2023/12/15 04:12:47;;;;;;;2.53;1.90;;;;;;;;;;5777823;28;20085;-80
2023/12/15 04:15:38;;;;;;;2.33;2.13;;;;;;;;;;5795351;28;20412;-79
2023/12/15 04:18:28;;;;;;;2.38;1.60;;;;;;;;;;5810029;28;20710;-79
2023/12/15 04:21:19;;;;;;;2.20;1.73;;;;;;;;;;5777699;28;20054;-79
2023/12/15 04:24:10;;;;;;;3.13;1.75;;;;;;;;;;5804565;28;20054;-79
2023/12/15 04:27:01;;;;;;;6.05;1.73;;;;;;;;;;5795048;28;20050;-79
2023/12/15 04:29:52;;;;;;;3.47;2.63;;;;;;;;;;5778061;28;20496;-79
2023/12/15 04:32:42;;;;;;;2.13;1.92;;;;;;;;;;5777386;28;20053;-79
2023/12/15 04:35:33;;;;;;;3.10;2.35;;;;;;;;;;5794756;28;20058;-79
2023/12/15 04:38:24;;;;;;;6.55;3.17;;;;;;;;;;5794514;28;20185;-79
2023/12/15 04:41:23;;;;;;;5.35;3.25;;;;;;;;;;5794555;28;20588;-79
2023/12/15 04:44:13;;;;;;;3.85;1.73;;;;;;;;;;5777748;28;20097;-79
2023/12/15 04:47:04;;;;;;;5.57;2.63;;;;;;;;;;5793233;28;20401;-80
2023/12/15 04:49:55;;;;;;;2.17;1.85;;;;;;;;;;5794682;28;20098;-80
2023/12/15 04:52:46;;;;;;;6.30;1.55;;;;;;;;;;5809150;28;20526;-80
2023/12/15 04:55:37;;;;;;;3.13;1.95;;;;;;;;;;5794484;28;20050;-80
2023/12/15 04:58:28;;;;;;;4.30;2.13;;;;;;;;;;5793011;28;20504;-80
2023/12/15 05:01:18;;;;;;;3.15;1.98;;;;;;;;;;5792859;28;20416;-80
2023/12/15 05:04:09;;;;;;;4.00;2.50;;;;;;;;;;5792896;28;20061;-80
2023/12/15 05:07:02;;;;;;;4.65;2.40;;;;;;;;;;5793213;28;20061;-80
2023/12/15 05:09:53;;;;;;;3.80;2.15;;;;;;;;;;5785429;28;20047;-80
2023/12/15 05:12:43;;;;;;;3.25;2.10;;;;;;;;;;5792612;28;20054;-80
2023/12/15 05:15:34;;;;;;;2.97;2.38;;;;;;;;;;5792793;28;20412;-80
2023/12/15 05:18:25;;;;;;;5.88;2.03;;;;;;;;;;5793743;28;20066;-80
2023/12/15 05:21:16;;;;;;;5.28;2.28;;;;;;;;;;5776740;28;20053;-80
2023/12/15 05:24:06;;;;;;;4.93;3.00;;;;;;;;;;5792847;28;20058;-80
2023/12/15 05:26:58;;;;;;;3.17;2.40;;;;;;;;;;5802212;28;20062;-80
2023/12/15 05:29:48;;;;;;;2.85;2.05;;;;;;;;;;5793928;28;20417;-80
2023/12/15 05:32:39;;;;;;;6.25;5.47;;;;;;;;;;5792357;28;20500;-80
2023/12/15 05:35:30;;;;;;;6.82;4.35;;;;;;;;;;5793657;28;20046;-80
2023/12/15 05:38:21;;;;;;;6.80;3.33;;;;;;;;;;5792348;28;20058;-80
2023/12/15 05:41:12;;;;;;;15.23;3.70;;;;;;;;;;5792307;28;20424;-80
2023/12/15 05:44:03;;;;;;;6.82;4.00;;;;;;;;;;5792489;28;20069;-80
2023/12/15 05:46:54;;;;;;;9.60;3.42;;;;;;;;;;5792847;28;20457;-80
2023/12/15 05:49:45;;;;;;;8.43;4.28;;;;;;;;;;5792091;28;20051;-80
2023/12/15 05:52:35;;;;;;;6.32;2.83;;;;;;;;;;5792136;28;20141;-80
2023/12/15 05:55:26;;;;;;;3.35;2.50;;;;;;;;;;5793595;28;20038;-80
2023/12/15 05:58:17;;;;;;;9.55;2.78;;;;;;;;;;5812971;28;20414;-80
2023/12/15 06:01:08;;;;;;;3.25;2.95;;;;;;;;;;5796424;28;20050;-80
2023/12/15 06:03:59;;;;;;;7.00;3.90;;;;;;;;;;5798398;28;20469;-81
2023/12/15 06:06:50;;;;;;;6.72;3.03;;;;;;;;;;5796709;28;20054;-81
2023/12/15 06:09:42;;;;;;;8.55;2.63;;;;;;;;;;5796294;28;20467;-80
2023/12/15 06:12:33;;;;;;;2.97;2.40;;;;;;;;;;5796323;28;20054;-81
2023/12/15 06:15:24;;;;;;;9.60;3.80;;;;;;;;;;5796287;28;20054;-80
2023/12/15 06:18:14;;;;;;;2.58;2.10;;;;;;;;;;5780388;28;20046;-80
2023/12/15 06:21:05;;;;;;;7.28;4.30;;;;;;;;;;5796193;28;20047;-80
2023/12/15 06:23:56;;;;;;;4.47;2.65;;;;;;;;;;5805620;28;20082;-80
2023/12/15 06:26:47;;;;;;;3.80;2.72;;;;;;;;;;5797407;28;20049;-81
2023/12/15 06:29:39;;;;;;;6.47;2.63;;;;;;;;;;5796115;28;20043;-80
2023/12/15 06:32:30;;;;;;;8.40;3.03;;;;;;;;;;5796272;28;20047;-80
2023/12/15 06:35:21;;;;;;;6.97;3.53;;;;;;;;;;5795940;28;20054;-80
2023/12/15 06:38:12;;;;;;;5.13;3.10;;;;;;;;;;5780060;28;20105;-80
2023/12/15 06:41:04;;;;;;;5.72;3.83;;;;;;;;;;5795826;28;20055;-80
2023/12/15 06:43:55;;;;;;;4.75;3.00;;;;;;;;;;5796323;28;20059;-80
2023/12/15 06:46:46;;;;;;;7.70;5.80;;;;;;;;;;5795404;28;20142;-80
2023/12/15 06:49:37;;;;;;;7.45;4.63;;;;;;;;;;5797090;28;20800;-80
2023/12/15 06:52:28;;;;;;;8.82;5.18;;;;;;;;;;5796827;28;20051;-80
2023/12/15 06:55:18;;;;;;;4.40;3.92;;;;;;;;;;5796921;28;20054;-80
2023/12/15 06:58:09;;;;;;;4.75;3.95;;;;;;;;;;5779497;28;20050;-80
2023/12/15 07:01:00;;;;;;;11.88;4.05;;;;;;;;;;5797352;28;20054;-81
2023/12/15 07:03:51;;;;;;;6.55;4.38;;;;;;;;;;5795672;28;20514;-80
2023/12/15 07:06:42;;;;;;;8.45;5.93;;;;;;;;;;5796539;28;20517;-80
2023/12/15 07:09:32;;;;;;;10.15;4.80;;;;;;;;;;5795196;28;20129;-80
2023/12/15 07:12:23;;;;;;;11.60;6.55;;;;;;;;;;5795181;28;20043;-80
2023/12/15 07:15:15;;;;;;;13.80;8.35;;;;;;;;;;5806372;28;20077;-80
2023/12/15 07:18:06;;;;;;;10.65;5.78;;;;;;;;;;5796461;28;20051;-80
2023/12/15 07:20:57;;;;;;;8.88;5.18;;;;;;;;;;5795341;28;20528;-81
2023/12/15 07:23:48;;;;;;;18.15;7.90;;;;;;;;;;5810954;28;20047;-80
2023/12/15 07:26:39;;;;;;;6.45;3.67;;;;;;;;;;5794865;28;20799;-81
2023/12/15 07:29:30;;;;;;;3.70;3.00;;;;;;;;;;5796187;28;20125;-81
2023/12/15 07:32:21;;;;;;;5.20;2.63;;;;;;;;;;5794795;28;20408;-81
2023/12/15 07:35:12;;;;;;;5.45;2.55;;;;;;;;;;5794539;28;20058;-80
2023/12/15 07:38:18;;;;;;;6.43;3.38;;;;;;;;;;5808850;28;20054;-81
2023/12/15 07:41:09;;;;;;;2.90;2.38;;;;;;;;;;5794517;28;20061;-80
2023/12/15 07:44:00;;;;;;;4.25;2.58;;;;;;;;;;5794817;28;20477;-81
2023/12/15 07:46:54;;;;;;;12.65;4.75;;;;;;;;;;5794481;28;20042;-81
2023/12/15 07:49:45;;;;;;;10.32;7.20;;;;;;;;;;5794278;28;20394;-81
2023/12/15 07:52:36;;;;;;;12.07;5.88;;;;;;;;;;5794289;28;20061;-81
2023/12/15 07:55:27;;;;;;;10.25;5.90;;;;;;;;;;5778215;28;20046;-81
2023/12/15 07:58:19;;;;;;;7.18;3.72;;;;;;;;;;5794130;28;20051;-81
2023/12/15 08:01:10;;;;;;;8.70;4.22;;;;;;;;;;5794126;28;20059;-81
2023/12/15 08:04:01;;;;;;;4.68;2.83;;;;;;;;;;5794044;28;20058;-80
2023/12/15 08:06:51;;;;;;;8.57;5.18;;;;;;;;;;5810428;28;20057;-81
2023/12/15 08:09:42;;;;;;;8.27;3.28;;;;;;;;;;5793744;28;20042;-81
2023/12/15 08:12:33;;;;;;;6.25;3.85;;;;;;;;;;5793922;28;20049;-81
2023/12/15 08:15:24;;;;;;;6.18;4.38;;;;;;;;;;5793800;28;20043;-81
2023/12/15 08:18:14;;;;;;;12.80;9.00;;;;;;;;;;5804553;28;20416;-81
2023/12/15 08:21:06;;;;;;;14.88;8.70;;;;;;;;;;5777847;28;20062;-80
2023/12/15 08:23:56;;;;;;;9.63;3.50;;;;;;;;;;5795565;28;20378;-81
2023/12/15 08:26:47;;;;;;;11.00;4.30;;;;;;;;;;5793431;28;20039;-81
2023/12/15 08:29:38;;;;;;;3.92;2.65;;;;;;;;;;5777591;28;20093;-81
2023/12/15 08:32:29;;;;;;;5.53;2.78;;;;;;;;;;5777370;28;20098;-81
2023/12/15 08:35:20;;;;;;;3.22;2.42;;;;;;;;;;5794673;28;20057;-81
2023/12/15 08:38:11;;;;;;;10.80;3.80;;;;;;;;;;5777351;28;20054;-81
2023/12/15 08:41:02;;;;;;;9.73;4.47;;;;;;;;;;5794663;28;20054;-80
2023/12/15 08:43:54;;;;;;;8.95;6.85;;;;;;;;;;5809594;28;20599;-81
2023/12/15 08:46:44;;;;;;;4.55;3.40;;;;;;;;;;5792969;28;20046;-81
2023/12/15 08:49:35;;;;;;;7.50;4.00;;;;;;;;;;5794461;28;20515;-81
2023/12/15 08:52:26;;;;;;;3.80;3.47;;;;;;;;;;5776933;28;20122;-80
2023/12/15 08:55:16;;;;;;;10.45;6.53;;;;;;;;;;5809167;28;20050;-81
2023/12/15 08:58:07;;;;;;;8.15;5.18;;;;;;;;;;5792946;28;20420;-80
2023/12/15 09:00:58;;;;;;;7.25;5.85;;;;;;;;;;5793375;28;20054;-81
2023/12/15 09:03:49;;;;;;;8.75;3.92;;;;;;;;;;5794152;28;20085;-81
2023/12/15 09:06:40;;;;;;;5.15;4.00;;;;;;;;;;5792779;28;20066;-81
2023/12/15 09:09:38;;;;;;;6.70;3.75;;;;;;;;;;5792883;28;20122;-81
2023/12/15 09:12:29;;;;;;;8.60;5.00;;;;;;;;;;5792870;28;20053;-81
2023/12/15 09:15:20;;;;;;;20.65;7.05;;;;;;;;;;5776864;28;20051;-80
2023/12/15 09:18:11;;;;;;;4.43;2.95;;;;;;;;;;5776744;28;20054;-80
2023/12/15 09:21:01;;;;;;;15.18;4.97;;;;;;;;;;5792585;28;20055;-80
2023/12/15 09:23:56;;;;;;;6.40;4.93;;;;;;;;;;5777010;28;20051;-80
2023/12/15 09:26:48;;;;;;;7.28;5.32;;;;;;;;;;5808633;28;20078;-80
2023/12/15 09:29:38;;;;;;;14.55;4.38;;;;;;;;;;5793829;28;20050;-80
2023/12/15 09:32:31;;;;;;;7.65;5.15;;;;;;;;;;5797180;28;20046;-80
2023/12/15 09:35:22;;;;;;;5.82;4.20;;;;;;;;;;5796849;28;20058;-80
2023/12/15 09:38:13;;;;;;;3.63;3.33;;;;;;;;;;5798571;28;20055;-80
2023/12/15 09:41:04;;;;;;;10.10;4.80;;;;;;;;;;5798333;28;20050;-80
2023/12/15 09:43:56;;;;;;;6.65;4.55;;;;;;;;;;5798764;28;20066;-80
2023/12/15 09:46:48;;;;;;;6.53;4.47;;;;;;;;;;5798206;28;20047;-81
2023/12/15 09:49:41;;;;;;;4.68;3.83;;;;;;;;;;5796935;28;20051;-80
2023/12/15 09:52:36;;;;;;;8.77;4.22;;;;;;;;;;5781036;28;20415;-80
2023/12/15 09:55:30;;;;;;;11.82;5.47;;;;;;;;;;5812919;28;20185;-80
2023/12/15 09:58:21;;;;;;;9.27;3.92;;;;;;;;;;5796677;28;20058;-80
2023/12/15 10:01:12;;;;;;;5.22;3.80;;;;;;;;;;5797776;28;20524;-79
2023/12/15 10:04:07;;;;;;;7.50;4.82;;;;;;;;;;5796715;28;20051;-80
2023/12/15 10:06:58;;;;;;;8.57;6.20;;;;;;;;;;5796784;28;20058;-80
2023/12/15 10:09:48;;;;;;;7.45;5.25;;;;;;;;;;5812499;28;20062;-80
2023/12/15 10:12:39;;;;;;;5.78;4.18;;;;;;;;;;5797757;28;20393;-79
2023/12/15 10:15:30;;;;;;;7.60;4.75;;;;;;;;;;5796117;28;20054;-80
2023/12/15 10:18:21;;;;;;;5.60;3.25;;;;;;;;;;5780078;28;20396;-80
2023/12/15 10:21:25;;;;;;;7.07;4.07;;;;;;;;;;5796446;28;20050;-80
2023/12/15 10:24:25;;;;;;;5.45;3.95;;;;;;;;;;5796128;28;20153;-80
2023/12/15 10:27:15;;;;;;;7.13;2.72;;;;;;;;;;5780512;28;20124;-80
2023/12/15 10:30:07;;;;;;;4.85;2.67;;;;;;;;;;5780112;28;20055;-79
2023/12/15 10:32:58;;;;;;;4.25;3.55;;;;;;;;;;5812424;28;20059;-79
2023/12/15 10:35:50;;;;;;;9.18;4.25;;;;;;;;;;5812114;28;20189;-79
2023/12/15 10:38:41;;;;;;;24.17;7.10;;;;;;;;;;5795757;28;20074;-79
2023/12/15 10:41:34;;;;;;;7.45;4.45;;;;;;;;;;5808988;28;20129;-79
2023/12/15 10:44:27;;;;;;;9.32;6.20;;;;;;;;;;5795786;28;20047;-79
2023/12/15 10:47:18;;;;;;;7.20;5.80;;;;;;;;;;5795643;28;20058;-79
2023/12/15 10:50:09;;;;;;;3.17;2.90;;;;;;;;;;5779663;28;20043;-79
2023/12/15 10:53:01;;;;;;;4.70;3.63;;;;;;;;;;5805548;28;20050;-79
2023/12/15 10:55:52;;;;;;;7.05;5.25;;;;;;;;;;5795821;28;20051;-79
2023/12/15 10:58:43;;;;;;;4.72;3.83;;;;;;;;;;5796748;28;20169;-79
2023/12/15 11:01:37;;;;;;;5.60;2.88;;;;;;;;;;5795360;28;20047;-79
2023/12/15 11:04:28;;;;;;;2.90;2.50;;;;;;;;;;5795393;28;20051;-79
2023/12/15 11:07:20;;;;;;;6.15;2.60;;;;;;;;;;5795177;28;20074;-79
2023/12/15 11:10:12;;;;;;;4.30;3.00;;;;;;;;;;5790105;28;20066;-79
2023/12/15 11:13:04;;;;;;;5.22;2.80;;;;;;;;;;5779418;28;20509;-79
2023/12/15 11:15:55;;;;;;;4.90;3.42;;;;;;;;;;5795609;28;20059;-79
2023/12/15 11:18:51;;;;;;;6.43;3.35;;;;;;;;;;5794954;28;20038;-79
2023/12/15 11:21:42;;;;;;;6.63;2.22;;;;;;;;;;5795227;28;20130;-79
2023/12/15 11:24:33;;;;;;;3.38;1.95;;;;;;;;;;5795061;28;20559;-79
2023/12/15 11:27:24;;;;;;;4.03;2.95;;;;;;;;;;5778892;28;20055;-79
2023/12/15 11:30:29;;;;;;;2.60;1.77;;;;;;;;;;5779299;28;20055;-79
2023/12/15 11:33:40;;;;;;;5.15;3.05;;;;;;;;;;5810888;28;20058;-79
2023/12/15 11:36:41;;;;;;;2.40;1.83;;;;;;;;;;5796170;28;20471;-79
2023/12/15 11:39:35;;;;;;;3.35;1.75;;;;;;;;;;5794703;28;20073;-78
2023/12/15 11:42:25;;;;;;;3.70;2.50;;;;;;;;;;5794543;28;20057;-79
2023/12/15 11:45:18;;;;;;;2.08;1.58;;;;;;;;;;5794691;28;20077;-79
2023/12/15 11:48:09;;;;;;;3.92;1.92;;;;;;;;;;5794255;28;20059;-79
2023/12/15 11:51:02;;;;;;;1.92;1.50;;;;;;;;;;5794880;28;20416;-79
2023/12/15 11:53:53;;;;;;;4.03;3.33;;;;;;;;;;5793823;28;20042;-79
2023/12/15 11:56:44;;;;;;;3.15;1.63;;;;;;;;;;5809598;28;20046;-79
2023/12/15 11:59:44;;;;;;;2.75;2.47;;;;;;;;;;5778424;28;20448;-79
2023/12/15 12:02:36;;;;;;;1.38;1.27;;;;;;;;;;5807592;28;20050;-79
2023/12/15 12:05:27;;;;;;;6.10;2.80;;;;;;;;;;5793985;28;20129;-79
2023/12/15 12:08:18;;;;;;;2.13;1.60;;;;;;;;;;5795219;28;20054;-79
2023/12/15 12:11:09;;;;;;;4.30;3.90;;;;;;;;;;5793979;28;20050;-79
2023/12/15 12:14:03;;;;;;;5.32;4.57;;;;;;;;;;5795644;28;20157;-79
2023/12/15 12:16:54;;;;;;;6.25;4.93;;;;;;;;;;5778338;28;20497;-79
2023/12/15 12:19:45;;;;;;;4.95;3.00;;;;;;;;;;5778021;28;20049;-79
2023/12/15 12:22:43;;;;;;;6.07;2.20;;;;;;;;;;5795084;28;20051;-79
2023/12/15 12:25:34;;;;;;;2.38;2.17;;;;;;;;;;5793817;28;20047;-79
2023/12/15 12:28:25;;;;;;;16.80;3.70;;;;;;;;;;5793603;28;20039;-79
2023/12/15 12:31:17;;;;;;;9.45;5.85;;;;;;;;;;5805167;28;20047;-79
2023/12/15 12:34:08;;;;;;;7.78;2.70;;;;;;;;;;5793523;28;20134;-79
2023/12/15 12:36:58;;;;;;;8.65;3.08;;;;;;;;;;5795199;28;20051;-79
2023/12/15 12:39:49;;;;;;;3.38;2.25;;;;;;;;;;5809464;28;20424;-79
2023/12/15 12:42:40;;;;;;;5.10;3.25;;;;;;;;;;5809364;28;20046;-79
2023/12/15 12:45:31;;;;;;;3.90;2.22;;;;;;;;;;5794695;28;20125;-79
2023/12/15 12:48:22;;;;;;;8.70;5.57;;;;;;;;;;5793197;28;20401;-79
2023/12/15 12:51:13;;;;;;;2.40;1.80;;;;;;;;;;5793168;28;20461;-79
2023/12/15 12:54:04;;;;;;;3.53;2.13;;;;;;;;;;5777454;28;20053;-78
2023/12/15 12:56:54;;;;;;;2.05;1.83;;;;;;;;;;5794998;28;20522;-79
2023/12/15 12:59:50;;;;;;;15.10;10.40;;;;;;;;;;5794640;28;20047;-79
2023/12/15 13:02:42;;;;;;;6.85;2.60;;;;;;;;;;5792974;28;20456;-79
2023/12/15 13:05:33;;;;;;;5.28;2.53;;;;;;;;;;5794244;28;20062;-79
2023/12/15 13:08:24;;;;;;;4.72;2.42;;;;;;;;;;5792956;28;20633;-79
2023/12/15 13:11:15;;;;;;;2.25;2.00;;;;;;;;;;5792817;28;20053;-79
2023/12/15 13:14:06;;;;;;;2.75;2.53;;;;;;;;;;5794259;28;20058;-79
2023/12/15 13:16:57;;;;;;;3.78;3.08;;;;;;;;;;5801864;28;20109;-79
2023/12/15 13:19:50;;;;;;;5.38;2.42;;;;;;;;;;5808862;28;20097;-79
2023/12/15 13:22:40;;;;;;;8.48;4.72;;;;;;;;;;5794019;28;20046;-79
2023/12/15 13:25:38;;;;;;;7.00;4.47;;;;;;;;;;5793941;28;20043;-79
2023/12/15 13:28:31;;;;;;;4.43;3.67;;;;;;;;;;5793994;28;20062;-79
2023/12/15 13:31:22;;;;;;;8.10;3.15;;;;;;;;;;5792712;28;20047;-79
2023/12/15 13:34:13;;;;;;;9.60;4.15;;;;;;;;;;5808614;28;20059;-79
2023/12/15 13:37:06;;;;;;;5.82;4.10;;;;;;;;;;5792689;28;20879;-79
2023/12/15 13:39:58;;;;;;;8.90;3.67;;;;;;;;;;5793102;28;20055;-79
2023/12/15 13:42:48;;;;;;;7.15;3.05;;;;;;;;;;5792482;28;20255;-79
2023/12/15 13:45:39;;;;;;;5.85;4.47;;;;;;;;;;5808423;28;20043;-79
2023/12/15 13:48:40;;;;;;;5.03;4.05;;;;;;;;;;5792552;28;20043;-79
2023/12/15 13:51:31;;;;;;;6.30;5.03;;;;;;;;;;5792271;28;20061;-79
2023/12/15 13:54:22;;;;;;;4.05;3.65;;;;;;;;;;5792420;28;20047;-79
2023/12/15 13:57:13;;;;;;;3.63;2.85;;;;;;;;;;5792129;28;20059;-79
2023/12/15 14:00:08;;;;;;;3.78;2.53;;;;;;;;;;5776480;28;20416;-79
2023/12/15 14:02:59;;;;;;;4.65;2.85;;;;;;;;;;5793901;28;20043;-79
2023/12/15 14:05:49;;;;;;;3.78;3.47;;;;;;;;;;5776452;28;20159;-79
2023/12/15 14:08:40;;;;;;;3.80;3.05;;;;;;;;;;5807065;28;20110;-79
2023/12/15 14:11:31;;;;;;;6.80;3.30;;;;;;;;;;5792080;28;20047;-79
2023/12/15 14:14:22;;;;;;;10.52;7.68;;;;;;;;;;5792168;28;20051;-79
2023/12/15 14:17:13;;;;;;;7.80;4.65;;;;;;;;;;5794719;28;20062;-79
2023/12/15 14:20:07;;;;;;;7.40;4.88;;;;;;;;;;5806269;28;20477;-79
2023/12/15 14:22:58;;;;;;;10.30;5.95;;;;;;;;;;5781221;28;20117;-79
2023/12/15 14:25:49;;;;;;;5.82;4.28;;;;;;;;;;5796247;28;20452;-79
2023/12/15 14:28:40;;;;;;;8.32;4.20;;;;;;;;;;5796134;28;20365;-79
2023/12/15 14:31:32;;;;;;;3.78;2.83;;;;;;;;;;5796072;28;20051;-79
2023/12/15 14:34:23;;;;;;;2.33;2.10;;;;;;;;;;5795885;28;20047;-79
2023/12/15 14:37:14;;;;;;;4.68;2.92;;;;;;;;;;5797410;28;20073;-79
2023/12/15 14:40:06;;;;;;;5.00;4.50;;;;;;;;;;5780135;28;20054;-79
2023/12/15 14:42:57;;;;;;;3.90;3.22;;;;;;;;;;5796180;28;20054;-79
2023/12/15 14:45:47;;;;;;;7.40;3.55;;;;;;;;;;5795802;28;20046;-79
2023/12/15 14:48:38;;;;;;;5.65;4.18;;;;;;;;;;5795659;28;20062;-79
2023/12/15 14:51:29;;;;;;;9.65;5.45;;;;;;;;;;5811530;28;20062;-79
2023/12/15 14:54:20;;;;;;;11.35;6.03;;;;;;;;;;5795602;28;20058;-79
2023/12/15 14:57:11;;;;;;;10.50;5.60;;;;;;;;;;5779744;28;20413;-79
2023/12/15 15:00:03;;;;;;;13.13;7.20;;;;;;;;;;5796133;28;20049;-79
2023/12/15 15:02:53;;;;;;;7.63;6.25;;;;;;;;;;5804357;28;20054;-79
2023/12/15 15:05:44;;;;;;;13.43;7.93;;;;;;;;;;5811552;28;20047;-79
2023/12/15 15:08:36;;;;;;;13.75;6.68;;;;;;;;;;5779514;28;20053;-79
2023/12/15 15:11:28;;;;;;;23.92;9.30;;;;;;;;;;5795198;28;20046;-79
2023/12/15 15:14:19;;;;;;;18.80;7.35;;;;;;;;;;5779499;28;20050;-79
2023/12/15 15:17:10;;;;;;;18.60;11.23;;;;;;;;;;5805703;28;20105;-79
2023/12/15 15:20:01;;;;;;;18.27;10.38;;;;;;;;;;5795076;28;20060;-79
2023/12/15 15:22:53;;;;;;;27.10;18.40;;;;;;;;;;5795556;28;20119;-79
2023/12/15 15:25:44;;;;;;;27.75;13.75;;;;;;;;;;5794879;28;20130;-79
2023/12/15 15:28:35;;;;;;;21.17;12.52;;;;;;;;;;5794881;28;20073;-79
2023/12/15 15:31:25;;;;;;;22.70;13.45;;;;;;;;;;5796162;28;20515;-79
2023/12/15 15:34:18;;;;;;;25.58;14.60;;;;;;;;;;5811006;28;20061;-79
2023/12/15 15:37:09;;;;;;;33.42;13.93;;;;;;;;;;5794733;28;20496;-79
2023/12/15 15:39:59;;;;;;;24.08;15.05;;;;;;;;;;5795358;28;20055;-79
2023/12/15 15:42:51;;;;;;;31.95;17.85;;;;;;;;;;5795999;28;20043;-79
2023/12/15 15:45:42;;;;;;;24.15;11.88;;;;;;;;;;5778614;28;20049;-79
2023/12/15 15:48:33;;;;;;;33.72;13.23;;;;;;;;;;5795850;28;20072;-79
2023/12/15 15:51:24;;;;;;;17.42;8.63;;;;;;;;;;5810275;28;20054;-79
2023/12/15 15:54:15;;;;;;;16.95;8.70;;;;;;;;;;5778256;28;20515;-79
2023/12/15 15:57:06;;;;;;;13.95;10.48;;;;;;;;;;5795521;28;20050;-79
2023/12/15 15:59:57;;;;;;;28.25;11.85;;;;;;;;;;5794866;28;20050;-80
2023/12/15 16:02:48;;;;;;;17.27;9.85;;;;;;;;;;5794031;28;20050;-80
2023/12/15 16:05:39;;;;;;;18.20;9.68;;;;;;;;;;5794139;28;20508;-80
2023/12/15 16:08:33;;;;;;;14.48;7.57;;;;;;;;;;5795390;28;20129;-80
2023/12/15 16:11:24;;;;;;;23.58;11.45;;;;;;;;;;5793983;28;20137;-80
2023/12/15 16:14:15;;;;;;;30.77;12.45;;;;;;;;;;5795408;28;20047;-80
2023/12/15 16:17:05;;;;;;;25.75;14.43;;;;;;;;;;5795073;28;20050;-80
2023/12/15 16:19:56;;;;;;;28.65;15.65;;;;;;;;;;5795599;28;20057;-80
2023/12/15 16:22:47;;;;;;;29.45;14.45;;;;;;;;;;5795064;28;20461;-80
2023/12/15 16:25:38;;;;;;;38.78;20.40;;;;;;;;;;5794834;28;20069;-80
2023/12/15 16:28:28;;;;;;;39.20;16.83;;;;;;;;;;5790525;28;20062;-80
2023/12/15 16:31:19;;;;;;;34.75;17.40;;;;;;;;;;5777521;28;20057;-80
2023/12/15 16:34:10;;;;;;;29.00;14.82;;;;;;;;;;5793356;28;20412;-80
2023/12/15 16:37:01;;;;;;;29.25;14.18;;;;;;;;;;5793031;28;20050;-79
2023/12/15 16:39:54;;;;;;;26.85;13.20;;;;;;;;;;5801597;28;20165;-80
2023/12/15 16:42:45;;;;;;;30.27;13.20;;;;;;;;;;5793122;28;20046;-80
2023/12/15 16:45:36;;;;;;;32.45;16.20;;;;;;;;;;5807481;28;20553;-80
2023/12/15 16:48:27;;;;;;;28.67;15.43;;;;;;;;;;5777049;28;20058;-80
2023/12/15 16:51:26;;;;;;;33.72;15.27;;;;;;;;;;5792678;28;20051;-79
2023/12/15 16:54:17;;;;;;;49.58;17.33;;;;;;;;;;5777401;28;20059;-80
2023/12/15 16:57:08;;;;;;;38.92;17.85;;;;;;;;;;5792754;28;20061;-79
2023/12/15 16:59:59;;;;;;;38.47;17.73;;;;;;;;;;5777348;28;20070;-80
2023/12/15 17:02:49;;;;;;;33.63;14.98;;;;;;;;;;5776733;28;20223;-80